Nearby METAR Reports

 

EIDW - Dublin Airport, Ireland
Distance from station: ENE 79km
Updated: 20/09/2020 17:00
Mostly cloudy
Mostly cloudy
 Wind from E
Wind: E 15 km/h
Temperature: 14°C
Dew Point: 10°C
Humidity: 77%
Barometer: 1021 hPa
Clouds: Mostly cloudy
Visibility: 10 km
Cloud details: Few Clouds 457 m
Mostly cloudy 549 m
2020/09/20 16:00 EIDW 201600Z 08008KT 050V110 9999 FEW015 BKN018 14/10 Q1021 NOSIG
EIME - Casement (mil), Ireland
Distance from station: ENE 62km
Updated: 20/09/2020 17:00
Mostly cloudy
Mostly cloudy
 Wind from E
Wind: E 15 km/h
Temperature: 14°C
Dew Point: 10°C
Humidity: 77%
Barometer: 1021 hPa
Clouds: Mostly cloudy
Visibility: 10 km
Cloud details: Mostly cloudy 579 m
2020/09/20 16:00 EIME 201600Z 10008KT 9999 BKN019 14/10 Q1021
EIWF - Waterford Arpt, Ireland
Distance from station: S 111km
Updated: 20/09/2020 17:00
Clear
Clear
 Wind from NE
Wind: NE 7 km/h
Temperature: 18°C
Dew Point: 11°C
Humidity: 64%
Barometer: 1020 hPa
Summary: Clear
Visibility: greater than 10 km
2020/09/20 16:00 EIWF 201600Z 05004KT 010V090 CAVOK 18/11 Q1020
 
EINN - Shannon Airport, Ireland
Distance from station: WSW 117km
Updated: 20/09/2020 17:00
Few Clouds
Few Clouds
 Wind from WSW
Wind: WSW 6 km/h
Temperature: 19°C
Dew Point: 13°C
Humidity: 68%
Barometer: 1020 hPa
Clouds: Few Clouds
Visibility: 10 km
Cloud details: Few Clouds 610 m
2020/09/20 16:00 EINN 201600Z 24003KT 160V350 9999 FEW020 19/13 Q1020 NOSIG
EIKN - Connaught Apt, Ireland
Distance from station: NW 127km
Updated: 20/09/2020 13:30
NOT Current
Few Clouds
Few Clouds
 Wind from E
Wind: E 13 km/h
Temperature: 14°C
Dew Point: 10°C
Humidity: 77%
Barometer: 1022 hPa
Clouds: Few Clouds
Visibility: 10 km
Cloud details: Few Clouds 366 m
2020/09/20 12:30 EIKN 201230Z 08007KT 020V120 9999 FEW012 14/10 Q1022 NOSIG
EISG - Sligo Arpt, Ireland
Distance from station: NNW 148km
Updated: 20/09/2020 17:00
Clear
Clear
 Wind from NNW
Wind: NNW 9 km/h
Temperature: 16°C
Dew Point: 12°C
Humidity: 77%
Barometer: 1021 hPa
Summary: Clear
Visibility: greater than 10 km
2020/09/20 16:00 EISG 201600Z 34005KT CAVOK 16/12 Q1021
 
EICK - Cork Arpt/Corcai, Ireland
Distance from station: SSW 165km
Updated: 20/09/2020 17:00
Clear
Clear
 Wind from SSE
Wind: SSE 9 km/h
Temperature: 18°C
Dew Point: 13°C
Humidity: 73%
Barometer: 1020 hPa
Summary: Clear
Visibility: greater than 10 km
2020/09/20 16:00 EICK 201600Z 15005KT CAVOK 18/13 Q1020 NOSIG
EGAA - Belfast/Aldergro, United Kingdom
Distance from station: NNE 179km
Updated: 20/09/2020 17:20
Clear
Clear
 Wind from E
Wind: E 9 km/h
Temperature: 16°C
Dew Point: 11°C
Humidity: 72%
Barometer: 1021 hPa
Summary: Clear
Visibility: greater than 10 km
2020/09/20 16:20 EGAA 201620Z 09005KT CAVOK 16/11 Q1021
EIKY - Kerry Arpt, Ireland
Distance from station: SW 182km
Updated: 20/09/2020 17:00
Clear
Clear
 Wind from ENE
Wind: ENE 6 km/h
Temperature: 20°C
Dew Point: 13°C
Humidity: 64%
Barometer: 1019 hPa
Summary: Clear
Visibility: greater than 10 km
2020/09/20 16:00 EIKY 201600Z 07003KT 350V100 CAVOK 20/13 Q1019
 
EGAC - Belfast Harbour, United Kingdom
Distance from station: NNE 188km
Updated: 20/09/2020 17:20
Few Clouds
Few Clouds
 Wind from NNE
Wind: NNE 11 km/h
Temperature: 16°C
Dew Point: 11°C
Humidity: 72%
Barometer: 1021 hPa
Clouds: Few Clouds
Visibility: 10 km
Cloud details: Few Clouds 640 m
2020/09/20 16:20 EGAC 201620Z AUTO 02006KT 9999 FEW021/// 16/11 Q1021
EGOV - Valley Raf, United Kingdom
Distance from station: E 188km
Updated: 20/09/2020 16:50
Clear
Clear
 Wind from NE
Wind: NE 22 km/h
Temperature: 18°C
Dew Point: 11°C
Humidity: 64%
Barometer: 1020 hPa
Clouds: Clear
Visibility: 10 km
2020/09/20 15:50 EGOV 201550Z AUTO 05012KT 9999 NCD 18/11 Q1020
EGNS - Isle Of Man/Rona, United Kingdom
Distance from station: ENE 207km
Updated: 20/09/2020 17:20
Clear
Clear
 Wind from ENE
Wind: ENE 11 km/h
Temperature: 15°C
Dew Point: 11°C
Humidity: 77%
Barometer: 1021 hPa
Summary: Clear
Visibility: greater than 10 km
2020/09/20 16:20 EGNS 201620Z 07006KT CAVOK 15/11 Q1021 NOSIG